createdAt,value
2022-12-25T00:03:53.874Z,100347.75
2022-12-25T00:08:55.406Z,100366.84
2022-12-25T00:13:56.838Z,100374.16
2022-12-25T00:18:59.097Z,100381.25
2022-12-25T00:24:01.535Z,100384.69
2022-12-25T00:29:03.106Z,100387.38
2022-12-25T00:34:04.569Z,100386.44
2022-12-25T00:39:07.262Z,100394.00
2022-12-25T00:44:11.077Z,100396.16
2022-12-25T00:49:12.569Z,100398.91
2022-12-25T00:54:13.986Z,100398.13
2022-12-25T00:59:15.471Z,100408.91
2022-12-25T01:04:16.941Z,100411.81
2022-12-25T01:09:36.757Z,100410.06
2022-12-25T01:14:38.181Z,100431.75
2022-12-25T01:19:39.717Z,100429.72
2022-12-25T01:24:41.130Z,100435.38
2022-12-25T01:29:42.626Z,100437.41
2022-12-25T01:34:44.119Z,100445.53
2022-12-25T01:39:45.555Z,100435.19
2022-12-25T01:44:46.906Z,100448.34
2022-12-25T01:49:50.781Z,100438.56
2022-12-25T01:55:04.071Z,100435.78
2022-12-25T02:00:07.468Z,100436.16
2022-12-25T02:05:21.031Z,100444.13
2022-12-25T02:10:22.780Z,100440.41
2022-12-25T02:15:33.274Z,100435.59
2022-12-25T02:20:51.854Z,100445.38
2022-12-25T02:26:31.035Z,100447.38
2022-12-25T02:31:40.969Z,100440.59
2022-12-25T02:37:17.421Z,100453.63
2022-12-25T02:43:06.413Z,100464.94
2022-12-25T02:48:27.887Z,100466.44
2022-12-25T02:53:48.490Z,100472.44
2022-12-25T02:59:08.551Z,100475.06
2022-12-25T03:04:34.210Z,100484.94
2022-12-25T03:09:59.511Z,100474.88
2022-12-25T03:15:20.244Z,100474.94
2022-12-25T03:20:40.412Z,100481.63
2022-12-25T03:26:00.411Z,100489.06
2022-12-25T03:31:17.231Z,100501.13
2022-12-25T03:36:34.139Z,100518.53
2022-12-25T03:41:55.479Z,100521.91
2022-12-25T03:47:44.648Z,100523.09
2022-12-25T03:53:06.611Z,100519.91
2022-12-25T03:58:36.667Z,100527.94
2022-12-25T04:03:56.884Z,100539.00
2022-12-25T04:09:16.950Z,100522.47
2022-12-25T04:14:36.982Z,100520.78
2022-12-25T04:19:56.910Z,100522.84
2022-12-25T04:25:16.969Z,100517.97
2022-12-25T04:30:37.033Z,100529.50
2022-12-25T04:35:57.226Z,100542.59
2022-12-25T04:41:00.814Z,100536.13
2022-12-25T04:46:04.180Z,100534.41
2022-12-25T04:51:17.787Z,100534.72
2022-12-25T04:56:19.809Z,100552.34
2022-12-25T05:01:21.393Z,100549.22
2022-12-25T05:06:23.167Z,100552.81
2022-12-25T05:11:24.637Z,100554.72
2022-12-25T05:16:26.460Z,100567.63
2022-12-25T05:21:27.964Z,100571.09
2022-12-25T05:26:29.430Z,100578.88
2022-12-25T05:31:31.003Z,100574.41
2022-12-25T05:36:32.503Z,100573.78
2022-12-25T05:41:34.778Z,100583.56
2022-12-25T05:46:36.559Z,100582.44
2022-12-25T05:51:38.063Z,100581.50
2022-12-25T05:56:39.485Z,100590.00
2022-12-25T06:01:41.111Z,100590.16
2022-12-25T06:06:42.656Z,100599.13
2022-12-25T06:11:44.226Z,100600.84
2022-12-25T06:16:45.765Z,100611.72
2022-12-25T06:21:47.864Z,100634.91
2022-12-25T06:26:49.619Z,100626.72
2022-12-25T06:31:54.894Z,100646.16
2022-12-25T06:36:56.354Z,100645.47
2022-12-25T06:41:57.937Z,100656.47
2022-12-25T06:46:59.657Z,100670.78
2022-12-25T06:52:01.139Z,100664.50
2022-12-25T06:57:02.634Z,100659.28
2022-12-25T07:02:04.299Z,100655.00
2022-12-25T07:07:09.274Z,100651.25
2022-12-25T07:12:13.504Z,100663.69
2022-12-25T07:17:16.739Z,100655.59
2022-12-25T07:22:18.304Z,100673.84
2022-12-25T07:27:19.845Z,100666.75
2022-12-25T07:32:21.255Z,100681.16
2022-12-25T07:37:22.850Z,100678.25
2022-12-25T07:42:25.434Z,100671.38
2022-12-25T07:47:27.182Z,100673.41
2022-12-25T07:52:28.593Z,100663.91
2022-12-25T07:57:30.183Z,100678.13
2022-12-25T08:02:31.780Z,100682.88
2022-12-25T08:07:33.616Z,100682.78
2022-12-25T08:12:35.052Z,100681.28
2022-12-25T08:17:36.511Z,100680.66
2022-12-25T08:22:37.936Z,100688.84
2022-12-25T08:27:39.355Z,100698.28
2022-12-25T08:32:41.424Z,100700.66
2022-12-25T08:37:43.000Z,100694.53
2022-12-25T08:42:44.423Z,100704.16
2022-12-25T08:47:45.849Z,100701.06
2022-12-25T08:52:47.299Z,100705.91
2022-12-25T08:57:48.706Z,100708.38
2022-12-25T09:02:50.324Z,100714.78
2022-12-25T09:07:51.861Z,100714.63
2022-12-25T09:12:53.280Z,100712.44
2022-12-25T09:17:54.755Z,100719.72
2022-12-25T09:22:56.223Z,100717.34
2022-12-25T09:27:57.677Z,100715.56
2022-12-25T09:32:59.261Z,100719.22
2022-12-25T09:38:00.795Z,100712.66
2022-12-25T09:43:03.990Z,100714.94
2022-12-25T09:48:05.805Z,100713.69
2022-12-25T09:53:22.109Z,100715.88
2022-12-25T09:58:23.628Z,100705.72
2022-12-25T10:03:31.237Z,100715.34
2022-12-25T10:08:48.013Z,100699.50
2022-12-25T10:13:56.667Z,100696.91
2022-12-25T10:19:04.590Z,100702.09
2022-12-25T10:24:43.457Z,100687.94
2022-12-25T10:29:47.567Z,100682.06
2022-12-25T10:34:49.686Z,100675.31
2022-12-25T10:39:51.145Z,100667.31
2022-12-25T10:45:04.679Z,100666.75
2022-12-25T10:50:24.509Z,100660.22
2022-12-25T10:55:29.272Z,100652.75
2022-12-25T11:00:32.770Z,100644.97
2022-12-25T11:05:36.965Z,100642.41
2022-12-25T11:10:44.375Z,100621.03
2022-12-25T11:15:49.465Z,100614.78
2022-12-25T11:21:03.349Z,100600.84
2022-12-25T11:26:07.650Z,100608.69
2022-12-25T11:31:33.467Z,100609.56
2022-12-25T11:36:50.108Z,100605.19
2022-12-25T11:41:56.884Z,100601.97
2022-12-25T11:47:08.516Z,100606.34
2022-12-25T11:52:13.561Z,100607.06
2022-12-25T11:57:15.154Z,100589.56
2022-12-25T12:02:38.978Z,100590.34
2022-12-25T12:08:00.929Z,100594.97
2022-12-25T12:13:20.295Z,100587.94
2022-12-25T12:18:27.541Z,100589.56
2022-12-25T12:23:31.923Z,100590.34
2022-12-25T12:28:44.837Z,100591.16
2022-12-25T12:33:53.572Z,100584.09
2022-12-25T12:38:57.889Z,100581.19
2022-12-25T12:44:03.086Z,100589.06
2022-12-25T12:49:21.716Z,100578.00
2022-12-25T12:54:25.780Z,100592.50
2022-12-25T12:59:46.876Z,100586.25
2022-12-25T13:04:52.810Z,100582.78
2022-12-25T13:10:12.834Z,100563.59
2022-12-25T13:15:14.789Z,100569.06
2022-12-25T13:20:24.117Z,100574.50
2022-12-25T13:25:25.614Z,100568.13
2022-12-25T13:30:27.257Z,100579.56
2022-12-25T13:35:29.595Z,100583.84
2022-12-25T13:40:31.144Z,100556.88
2022-12-25T13:45:34.478Z,100549.31
2022-12-25T13:50:36.435Z,100529.38
2022-12-25T13:55:38.417Z,100515.25
2022-12-25T14:00:48.741Z,100512.84
2022-12-25T14:06:01.778Z,100538.47
2022-12-25T14:11:05.839Z,100549.09
2022-12-25T14:16:08.428Z,100541.63
2022-12-25T14:21:16.109Z,100540.25
2022-12-25T14:26:20.070Z,100547.00
2022-12-25T14:31:23.664Z,100540.25
2022-12-25T14:36:26.054Z,100537.41
2022-12-25T14:41:41.147Z,100536.94
2022-12-25T14:46:42.861Z,100544.44
2022-12-25T14:51:44.340Z,100539.84
2022-12-25T14:56:51.229Z,100525.03
2022-12-25T15:02:01.236Z,100522.00
2022-12-25T15:07:09.573Z,100515.66
2022-12-25T15:12:11.750Z,100525.09
2022-12-25T15:17:24.901Z,100524.09
2022-12-25T15:22:26.389Z,100512.69
2022-12-25T15:27:27.839Z,100510.28
2022-12-25T15:32:29.315Z,100524.31
2022-12-25T15:37:30.752Z,100510.66
2022-12-25T15:42:32.165Z,100505.59
2022-12-25T15:47:34.769Z,100500.31
2022-12-25T15:52:36.197Z,100496.28
2022-12-25T15:57:41.024Z,100522.22
2022-12-25T16:02:42.547Z,100510.13
2022-12-25T16:07:46.071Z,100491.41
2022-12-25T16:12:47.664Z,100486.31
2022-12-25T16:17:49.130Z,100480.06
2022-12-25T16:22:50.581Z,100474.00
2022-12-25T16:27:52.027Z,100455.66
2022-12-25T16:32:54.040Z,100450.97
2022-12-25T16:37:55.455Z,100444.22
2022-12-25T16:42:57.097Z,100438.00
2022-12-25T16:47:58.506Z,100450.06
2022-12-25T16:52:59.948Z,100427.91
2022-12-25T16:58:01.386Z,100443.84
2022-12-25T17:03:02.955Z,100433.09
2022-12-25T17:08:04.829Z,100441.56
2022-12-25T17:13:06.335Z,100443.66
2022-12-25T17:18:07.745Z,100421.59
2022-12-25T17:23:09.206Z,100407.75
2022-12-25T17:28:10.645Z,100397.59
2022-12-25T17:33:12.188Z,100399.81
2022-12-25T17:38:13.668Z,100408.16
2022-12-25T17:43:20.554Z,100406.03
2022-12-25T17:48:22.839Z,100410.44
2022-12-25T17:53:24.267Z,100409.69
2022-12-25T17:58:26.949Z,100392.78
2022-12-25T18:03:28.493Z,100381.50
2022-12-25T18:08:35.333Z,100386.44
2022-12-25T18:13:42.092Z,100389.44
2022-12-25T18:18:51.144Z,100374.66
2022-12-25T18:23:53.662Z,100363.44
2022-12-25T18:28:55.670Z,100348.84
2022-12-25T18:33:58.897Z,100344.66
2022-12-25T18:39:00.358Z,100327.06
2022-12-25T18:44:01.826Z,100330.91
2022-12-25T18:49:03.229Z,100327.25
2022-12-25T18:54:04.687Z,100328.03
2022-12-25T18:59:06.147Z,100322.22
2022-12-25T19:04:12.481Z,100313.56
2022-12-25T19:09:13.929Z,100302.25
2022-12-25T19:14:15.715Z,100290.53
2022-12-25T19:19:17.903Z,100292.19
2022-12-25T19:24:20.270Z,100291.13
2022-12-25T19:29:21.685Z,100277.19
2022-12-25T19:34:23.394Z,100265.06
2022-12-25T19:39:24.816Z,100265.88
2022-12-25T19:44:26.465Z,100264.06
2022-12-25T19:49:27.912Z,100262.72
2022-12-25T19:54:29.522Z,100249.09
2022-12-25T19:59:31.003Z,100244.50
2022-12-25T20:04:32.441Z,100238.94
2022-12-25T20:09:33.837Z,100226.47
2022-12-25T20:14:35.280Z,100217.84
2022-12-25T20:19:36.699Z,100193.00
2022-12-25T20:24:38.204Z,100203.56
2022-12-25T20:29:39.652Z,100215.09
2022-12-25T20:34:41.188Z,100220.38
2022-12-25T20:39:42.650Z,100215.16
2022-12-25T20:44:44.122Z,100211.44
2022-12-25T20:49:47.350Z,100188.16
2022-12-25T20:54:49.227Z,100169.56
2022-12-25T20:59:50.902Z,100177.25
2022-12-25T21:04:54.249Z,100171.47
2022-12-25T21:09:56.002Z,100174.06
2022-12-25T21:14:57.457Z,100153.66
2022-12-25T21:19:58.987Z,100148.09
2022-12-25T21:25:00.521Z,100149.63
2022-12-25T21:30:14.492Z,100138.22
2022-12-25T21:35:17.388Z,100141.56
2022-12-25T21:40:18.826Z,100133.59
2022-12-25T21:45:20.234Z,100111.06
2022-12-25T21:50:40.094Z,100116.47
2022-12-25T21:55:41.536Z,100126.63
2022-12-25T22:00:42.945Z,100140.59
2022-12-25T22:06:03.030Z,100158.97
2022-12-25T22:11:04.969Z,100149.38
2022-12-25T22:16:25.364Z,100135.00
2022-12-25T22:21:26.802Z,100117.91
2022-12-25T22:26:28.217Z,100106.56
2022-12-25T22:31:29.790Z,100115.34
2022-12-25T22:36:31.319Z,100110.19
2022-12-25T22:41:33.860Z,100102.41
2022-12-25T22:46:35.858Z,100094.47
2022-12-25T22:51:37.340Z,100066.88
2022-12-25T22:56:39.983Z,100057.06
2022-12-25T23:01:41.966Z,100044.56
2022-12-25T23:06:44.217Z,100037.22
2022-12-25T23:11:45.845Z,100044.34
2022-12-25T23:16:47.261Z,100051.13
2022-12-25T23:22:07.693Z,100053.88
2022-12-25T23:27:09.543Z,100044.03
2022-12-25T23:32:14.197Z,100051.91
2022-12-25T23:37:15.680Z,100030.94
2022-12-25T23:42:17.575Z,100039.13
2022-12-25T23:47:18.999Z,100046.22
2022-12-25T23:52:20.401Z,100039.88
2022-12-25T23:57:21.874Z,100037.94
